createdAt,value
2023-01-28T00:02:26.339Z,7.55
2023-01-28T00:04:54.443Z,7.74
2023-01-28T00:07:24.027Z,7.48
2023-01-28T00:09:51.872Z,7.38
2023-01-28T00:12:19.699Z,7.25
2023-01-28T00:14:47.928Z,6.71
2023-01-28T00:17:16.123Z,6.06
2023-01-28T00:19:44.816Z,6.70
2023-01-28T00:22:12.579Z,6.59
2023-01-28T00:24:41.834Z,6.56
2023-01-28T00:27:09.535Z,6.67
2023-01-28T00:29:37.759Z,6.49
2023-01-28T00:32:07.564Z,6.55
2023-01-28T00:34:35.300Z,6.50
2023-01-28T00:37:03.026Z,6.32
2023-01-28T00:39:32.260Z,6.88
2023-01-28T00:42:03.799Z,6.51
2023-01-28T00:44:31.499Z,6.63
2023-01-28T00:46:59.227Z,6.48
2023-01-28T00:49:26.917Z,6.55
2023-01-28T00:51:54.580Z,6.57
2023-01-28T00:54:22.352Z,6.14
2023-01-28T00:56:50.144Z,5.95
2023-01-28T00:59:19.411Z,6.30
2023-01-28T01:01:48.525Z,6.52
2023-01-28T01:04:26.312Z,6.91
2023-01-28T01:06:54.551Z,6.99
2023-01-28T01:09:22.858Z,6.48
2023-01-28T01:11:50.560Z,5.72
2023-01-28T01:14:19.687Z,6.13
2023-01-28T01:16:47.545Z,6.14
2023-01-28T01:19:15.717Z,6.10
2023-01-28T01:21:44.166Z,6.47
2023-01-28T01:24:14.129Z,6.83
2023-01-28T01:26:42.708Z,7.12
2023-01-28T01:29:10.810Z,7.23
2023-01-28T01:31:40.083Z,6.89
2023-01-28T01:34:07.866Z,6.44
2023-01-28T01:36:36.005Z,6.90
2023-01-28T01:39:03.874Z,5.94
2023-01-28T01:41:33.771Z,6.79
2023-01-28T01:44:02.750Z,7.09
2023-01-28T01:46:36.232Z,7.02
2023-01-28T01:49:14.309Z,6.50
2023-01-28T01:51:42.792Z,6.03
2023-01-28T01:54:10.736Z,6.07
2023-01-28T01:56:44.053Z,5.95
2023-01-28T01:59:16.436Z,5.65
2023-01-28T02:01:46.743Z,5.76
2023-01-28T02:04:21.543Z,5.64
2023-01-28T02:06:50.195Z,6.22
2023-01-28T02:09:29.915Z,5.93
2023-01-28T02:12:02.364Z,6.02
2023-01-28T02:14:36.034Z,6.03
2023-01-28T02:17:04.305Z,5.34
2023-01-28T02:19:38.896Z,5.58
2023-01-28T02:22:30.361Z,5.72
2023-01-28T02:25:29.343Z,6.17
2023-01-28T02:28:14.828Z,5.95
2023-01-28T02:30:53.118Z,5.82
2023-01-28T02:33:31.365Z,6.15
2023-01-28T02:36:09.357Z,6.42
2023-01-28T02:38:42.702Z,5.47
2023-01-28T02:41:19.601Z,5.84
2023-01-28T02:43:50.823Z,5.85
2023-01-28T02:46:41.620Z,6.27
2023-01-28T02:49:15.636Z,5.74
2023-01-28T02:52:01.935Z,5.88
2023-01-28T02:54:38.089Z,5.78
2023-01-28T02:57:17.605Z,5.78
2023-01-28T02:59:55.291Z,6.00
2023-01-28T03:02:30.497Z,6.01
2023-01-28T03:05:05.092Z,6.21
2023-01-28T03:07:37.524Z,5.32
2023-01-28T03:10:09.419Z,4.79
2023-01-28T03:12:58.793Z,4.79
2023-01-28T03:15:50.378Z,5.79
2023-01-28T03:18:40.572Z,5.60
2023-01-28T03:21:29.960Z,5.50
2023-01-28T03:24:18.874Z,6.20
2023-01-28T03:27:14.639Z,6.06
2023-01-28T03:30:04.104Z,5.72
2023-01-28T03:32:52.775Z,5.65
2023-01-28T03:35:41.887Z,5.51
2023-01-28T03:38:21.042Z,5.16
2023-01-28T03:40:53.182Z,5.10
2023-01-28T03:43:21.199Z,5.27
2023-01-28T03:45:51.336Z,5.22
2023-01-28T03:48:21.259Z,5.51
2023-01-28T03:50:49.266Z,5.46
2023-01-28T03:53:17.206Z,5.50
2023-01-28T03:55:52.251Z,5.05
2023-01-28T03:58:20.974Z,5.34
2023-01-28T04:00:49.068Z,4.73
2023-01-28T04:03:21.073Z,5.10
2023-01-28T04:06:17.836Z,6.00
2023-01-28T04:09:21.714Z,6.49
2023-01-28T04:11:55.670Z,6.53
2023-01-28T04:14:34.811Z,6.73
2023-01-28T04:17:12.862Z,5.97
2023-01-28T04:19:42.522Z,5.52
2023-01-28T04:22:12.070Z,5.67
2023-01-28T04:24:41.598Z,5.72
2023-01-28T04:27:09.917Z,4.83
2023-01-28T04:29:37.713Z,5.13
2023-01-28T04:32:23.852Z,6.07
2023-01-28T04:35:10.942Z,6.37
2023-01-28T04:37:50.832Z,6.67
2023-01-28T04:40:32.599Z,5.69
2023-01-28T04:43:11.276Z,6.13
2023-01-28T04:45:54.681Z,5.82
2023-01-28T04:48:54.764Z,5.46
2023-01-28T04:51:48.861Z,5.92
2023-01-28T04:54:31.070Z,5.47
2023-01-28T04:57:02.370Z,4.96
2023-01-28T04:59:30.906Z,5.33
2023-01-28T05:01:58.697Z,4.99
2023-01-28T05:04:27.443Z,4.81
2023-01-28T05:06:56.660Z,5.03
2023-01-28T05:09:28.727Z,5.68
2023-01-28T05:11:57.384Z,4.85
2023-01-28T05:14:25.277Z,5.13
2023-01-28T05:17:05.442Z,5.80
2023-01-28T05:19:33.831Z,4.88
2023-01-28T05:22:04.645Z,5.09
2023-01-28T05:24:38.145Z,5.42
2023-01-28T05:27:07.467Z,5.05
2023-01-28T05:29:35.663Z,5.55
2023-01-28T05:32:03.443Z,5.19
2023-01-28T05:34:32.513Z,5.32
2023-01-28T05:37:06.959Z,5.65
2023-01-28T05:39:39.235Z,6.24
2023-01-28T05:42:07.102Z,5.90
2023-01-28T05:44:37.947Z,6.17
2023-01-28T05:47:37.597Z,5.87
2023-01-28T05:50:17.502Z,6.29
2023-01-28T05:53:07.695Z,5.82
2023-01-28T05:55:39.798Z,6.11
2023-01-28T05:58:07.690Z,5.49
2023-01-28T06:00:36.355Z,5.10
2023-01-28T06:03:05.822Z,5.32
2023-01-28T06:05:36.376Z,5.07
2023-01-28T06:08:04.726Z,5.36
2023-01-28T06:10:34.243Z,5.19
2023-01-28T06:13:02.203Z,5.10
2023-01-28T06:15:44.035Z,5.72
2023-01-28T06:18:35.226Z,4.96
2023-01-28T06:21:03.131Z,4.57
2023-01-28T06:23:31.650Z,4.93
2023-01-28T06:26:00.912Z,4.98
2023-01-28T06:28:28.934Z,5.73
2023-01-28T06:30:56.985Z,5.62
2023-01-28T06:33:24.836Z,6.07
2023-01-28T06:35:52.558Z,5.40
2023-01-28T06:38:20.441Z,4.89
2023-01-28T06:40:52.489Z,4.91
2023-01-28T06:43:21.560Z,4.87
2023-01-28T06:45:49.406Z,5.14
2023-01-28T06:48:17.082Z,5.43
2023-01-28T06:50:44.752Z,5.18
2023-01-28T06:53:12.483Z,5.15
2023-01-28T06:55:40.453Z,5.25
2023-01-28T06:58:08.185Z,5.11
2023-01-28T07:00:37.727Z,5.14
2023-01-28T07:03:05.861Z,5.56
2023-01-28T07:05:33.750Z,4.93
2023-01-28T07:08:02.186Z,5.64
2023-01-28T07:10:30.250Z,5.90
2023-01-28T07:12:58.110Z,5.88
2023-01-28T07:15:25.956Z,5.07
2023-01-28T07:17:55.075Z,5.51
2023-01-28T07:20:23.254Z,5.94
2023-01-28T07:22:51.035Z,6.40
2023-01-28T07:25:18.939Z,6.41
2023-01-28T07:27:48.862Z,6.40
2023-01-28T07:30:17.997Z,6.42
2023-01-28T07:32:46.432Z,6.58
2023-01-28T07:35:15.977Z,6.83
2023-01-28T07:37:43.747Z,7.02
2023-01-28T07:40:13.218Z,6.85
2023-01-28T07:42:42.382Z,6.67
2023-01-28T07:45:13.154Z,6.37
2023-01-28T07:47:40.939Z,6.12
2023-01-28T07:50:10.278Z,6.24
2023-01-28T07:52:44.351Z,6.10
2023-01-28T07:55:15.487Z,5.65
2023-01-28T07:57:50.664Z,6.37
2023-01-28T08:00:19.588Z,6.78
2023-01-28T08:02:48.970Z,7.14
2023-01-28T08:05:21.548Z,7.18
2023-01-28T08:07:50.931Z,7.39
2023-01-28T08:10:19.881Z,7.31
2023-01-28T08:12:54.125Z,6.54
2023-01-28T08:15:22.207Z,5.81
2023-01-28T08:17:49.971Z,6.24
2023-01-28T08:20:18.717Z,6.21
2023-01-28T08:22:46.703Z,6.62
2023-01-28T08:25:16.187Z,6.39
2023-01-28T08:27:44.083Z,5.89
2023-01-28T08:30:13.284Z,5.73
2023-01-28T08:32:41.272Z,6.19
2023-01-28T08:35:09.684Z,5.36
2023-01-28T08:37:37.401Z,5.37
2023-01-28T08:40:06.052Z,5.71
2023-01-28T08:42:35.114Z,6.11
2023-01-28T08:45:02.894Z,6.01
2023-01-28T08:47:30.575Z,5.58
2023-01-28T08:49:58.336Z,6.09
2023-01-28T08:52:26.123Z,6.53
2023-01-28T08:54:53.867Z,6.70
2023-01-28T08:57:21.738Z,6.77
2023-01-28T08:59:50.829Z,6.21
2023-01-28T09:02:30.801Z,6.18
2023-01-28T09:04:59.591Z,7.30
2023-01-28T09:07:27.321Z,6.68
2023-01-28T09:09:55.065Z,6.79
2023-01-28T09:12:22.932Z,7.63
2023-01-28T09:14:52.944Z,7.69
2023-01-28T09:17:22.291Z,7.43
2023-01-28T09:19:51.346Z,7.42
2023-01-28T09:25:45.140Z,6.08
2023-01-28T09:28:18.131Z,5.65
2023-01-28T09:34:22.482Z,5.81
2023-01-28T09:39:52.319Z,4.80
2023-01-28T09:42:58.248Z,5.30
2023-01-28T09:45:38.888Z,4.34
2023-01-28T09:48:32.857Z,5.72
2023-01-28T09:51:02.029Z,5.05
2023-01-28T09:53:32.351Z,5.39
2023-01-28T09:56:03.712Z,5.97
2023-01-28T09:58:32.529Z,5.75
2023-01-28T10:01:07.553Z,5.82
2023-01-28T10:03:48.623Z,6.05
2023-01-28T10:06:27.310Z,5.19
2023-01-28T10:09:15.634Z,5.52
2023-01-28T10:12:00.602Z,5.10
2023-01-28T10:14:38.799Z,5.17
2023-01-28T10:17:13.328Z,5.37
2023-01-28T10:19:48.526Z,6.10
2023-01-28T10:22:23.672Z,5.00
2023-01-28T10:25:01.926Z,6.02
2023-01-28T10:27:32.253Z,6.15
2023-01-28T10:30:01.097Z,5.56
2023-01-28T10:32:31.303Z,6.85
2023-01-28T10:35:01.733Z,6.58
2023-01-28T10:37:30.404Z,5.98
2023-01-28T10:40:00.052Z,6.33
2023-01-28T10:42:30.499Z,6.48
2023-01-28T10:45:01.766Z,4.73
2023-01-28T10:47:34.058Z,6.27
2023-01-28T10:50:06.224Z,6.05
2023-01-28T10:52:34.017Z,5.84
2023-01-28T10:55:03.308Z,5.01
2023-01-28T10:57:31.045Z,5.57
2023-01-28T10:59:58.829Z,5.52
2023-01-28T11:02:32.969Z,6.25
2023-01-28T11:05:17.865Z,6.28
2023-01-28T11:07:46.030Z,6.44
2023-01-28T11:10:27.081Z,6.73
2023-01-28T11:12:58.868Z,5.31
2023-01-28T11:15:27.458Z,6.46
2023-01-28T11:17:59.630Z,6.48
2023-01-28T11:20:32.114Z,6.50
2023-01-28T11:22:59.955Z,6.08
2023-01-28T11:25:32.030Z,6.99
2023-01-28T11:28:01.866Z,6.11
2023-01-28T11:30:32.515Z,6.63
2023-01-28T11:33:07.509Z,5.13
2023-01-28T11:35:36.690Z,5.08
2023-01-28T11:38:04.539Z,5.66
2023-01-28T11:40:32.415Z,6.00
2023-01-28T11:43:01.023Z,6.25
2023-01-28T11:45:41.104Z,6.21
2023-01-28T11:48:24.328Z,6.37
2023-01-28T11:50:58.920Z,7.38
2023-01-28T11:53:53.796Z,6.85
2023-01-28T11:56:33.001Z,7.78
2023-01-28T11:59:11.679Z,7.10
2023-01-28T12:01:48.763Z,7.28
2023-01-28T12:04:34.741Z,6.67
2023-01-28T12:07:21.412Z,5.98
2023-01-28T12:09:57.876Z,5.56
2023-01-28T12:12:46.077Z,5.10
2023-01-28T12:15:39.890Z,6.37
2023-01-28T12:18:19.396Z,7.30
2023-01-28T12:20:58.004Z,7.67
2023-01-28T12:23:46.120Z,6.92
2023-01-28T12:26:17.384Z,6.51
2023-01-28T12:29:06.525Z,7.44
2023-01-28T12:31:49.064Z,6.67
2023-01-28T12:34:38.999Z,7.24
2023-01-28T12:37:15.335Z,7.05
2023-01-28T12:39:56.506Z,7.12
2023-01-28T12:42:32.368Z,7.29
2023-01-28T12:45:05.932Z,6.59
2023-01-28T12:47:40.400Z,7.47
2023-01-28T12:50:15.663Z,7.53
2023-01-28T12:52:48.270Z,7.16
2023-01-28T12:55:21.619Z,7.18
2023-01-28T12:57:52.158Z,7.14
2023-01-28T13:00:27.561Z,7.11
2023-01-28T13:03:06.309Z,5.97
2023-01-28T13:05:39.405Z,5.04
2023-01-28T13:08:13.929Z,5.19
2023-01-28T13:10:44.881Z,5.82
2023-01-28T13:13:19.447Z,6.28
2023-01-28T13:15:47.835Z,6.57
2023-01-28T13:18:46.699Z,5.86
2023-01-28T13:21:32.423Z,5.84
2023-01-28T13:24:19.527Z,6.05
2023-01-28T13:26:50.679Z,5.84
2023-01-28T13:29:32.665Z,5.30
2023-01-28T13:32:01.882Z,6.12
2023-01-28T13:34:36.927Z,5.71
2023-01-28T13:37:15.631Z,5.82
2023-01-28T13:39:49.352Z,5.74
2023-01-28T13:42:26.934Z,5.08
2023-01-28T13:44:54.951Z,5.56
2023-01-28T13:47:28.285Z,4.86
2023-01-28T13:49:59.323Z,5.15
2023-01-28T13:52:31.810Z,6.15
2023-01-28T13:55:04.588Z,5.61
2023-01-28T13:58:02.176Z,5.99
2023-01-28T14:00:38.342Z,6.31
2023-01-28T14:04:09.193Z,6.33
2023-01-28T14:06:54.181Z,5.47
2023-01-28T14:09:37.615Z,5.14
2023-01-28T14:12:43.491Z,5.04
2023-01-28T14:15:22.837Z,6.27
2023-01-28T14:17:54.841Z,6.31
2023-01-28T14:20:27.634Z,6.02
2023-01-28T14:23:01.088Z,5.75
2023-01-28T14:25:35.196Z,5.55
2023-01-28T14:28:06.062Z,6.29
2023-01-28T14:30:44.543Z,6.60
2023-01-28T14:33:14.145Z,6.05
2023-01-28T14:35:47.477Z,6.23
2023-01-28T14:38:18.773Z,6.15
2023-01-28T14:40:46.934Z,5.61
2023-01-28T14:43:19.331Z,5.40
2023-01-28T14:46:05.157Z,4.99
2023-01-28T14:48:39.996Z,4.91
2023-01-28T14:51:33.860Z,5.62
2023-01-28T14:54:32.140Z,5.34
2023-01-28T14:57:38.726Z,5.82
2023-01-28T15:00:18.808Z,5.73
2023-01-28T15:02:46.955Z,5.80
2023-01-28T15:05:19.855Z,5.72
2023-01-28T15:07:49.019Z,5.07
2023-01-28T15:10:20.386Z,5.55
2023-01-28T15:12:53.570Z,5.27
2023-01-28T15:15:30.614Z,4.89
2023-01-28T15:18:02.895Z,4.48
2023-01-28T15:20:33.049Z,4.48
2023-01-28T15:23:03.370Z,4.75
2023-01-28T15:25:31.439Z,4.31
2023-01-28T15:28:02.275Z,4.66
2023-01-28T15:30:32.562Z,4.49
2023-01-28T15:33:02.891Z,4.44
2023-01-28T15:35:33.630Z,4.19
2023-01-28T15:38:01.468Z,4.19
2023-01-28T15:40:31.241Z,4.33
2023-01-28T15:42:59.216Z,4.14
2023-01-28T15:45:29.444Z,3.99
2023-01-28T15:48:06.436Z,4.59
2023-01-28T15:50:35.923Z,4.46
2023-01-28T15:53:08.870Z,4.56
2023-01-28T15:55:39.420Z,3.87
2023-01-28T15:58:29.475Z,3.95
2023-01-28T16:01:13.815Z,4.77
2023-01-28T16:03:44.818Z,4.44
2023-01-28T16:06:18.408Z,4.03
2023-01-28T16:08:52.181Z,3.61
2023-01-28T16:11:26.220Z,4.05
2023-01-28T16:13:54.837Z,4.32
2023-01-28T16:16:29.512Z,4.14
2023-01-28T16:18:58.225Z,3.83
2023-01-28T16:21:29.945Z,3.58
2023-01-28T16:24:03.028Z,3.81
2023-01-28T16:26:32.974Z,3.96
2023-01-28T16:29:02.659Z,4.35
2023-01-28T16:31:30.737Z,4.23
2023-01-28T16:33:58.625Z,4.16
2023-01-28T16:36:27.823Z,4.70
2023-01-28T16:38:55.694Z,4.64
2023-01-28T16:41:29.212Z,3.77
2023-01-28T16:43:57.123Z,3.65
2023-01-28T16:46:27.794Z,3.90
2023-01-28T16:48:55.599Z,3.96
2023-01-28T16:51:23.908Z,4.20
2023-01-28T16:53:53.257Z,4.32
2023-01-28T16:56:44.034Z,4.16
2023-01-28T16:59:12.449Z,3.71
2023-01-28T17:01:40.755Z,4.10
2023-01-28T17:04:12.376Z,4.00
2023-01-28T17:06:42.975Z,3.62
2023-01-28T17:09:13.952Z,3.99
2023-01-28T17:11:42.269Z,4.18
2023-01-28T17:14:10.475Z,3.14
2023-01-28T17:16:38.597Z,3.80
2023-01-28T17:19:07.152Z,3.75
2023-01-28T17:21:34.962Z,3.65
2023-01-28T17:24:03.156Z,3.60
2023-01-28T17:26:34.240Z,3.61
2023-01-28T17:29:02.509Z,3.84
2023-01-28T17:31:30.523Z,4.08
2023-01-28T17:33:59.681Z,4.19
2023-01-28T17:36:28.508Z,4.20
2023-01-28T17:38:56.808Z,4.14
2023-01-28T17:41:24.786Z,3.82
2023-01-28T17:43:55.291Z,3.40
2023-01-28T17:46:24.886Z,3.55
2023-01-28T17:48:53.184Z,3.46
2023-01-28T17:51:21.298Z,3.39
2023-01-28T17:53:50.029Z,3.65
2023-01-28T17:56:19.224Z,3.86
2023-01-28T17:58:50.956Z,3.73
2023-01-28T18:01:20.919Z,3.97
2023-01-28T18:03:48.861Z,4.02
2023-01-28T18:06:18.390Z,3.84
2023-01-28T18:08:46.798Z,3.88
2023-01-28T18:11:17.706Z,3.68
2023-01-28T18:13:46.773Z,3.67
2023-01-28T18:16:17.919Z,3.75
2023-01-28T18:18:47.873Z,3.72
2023-01-28T18:21:34.766Z,3.72
2023-01-28T18:24:09.869Z,3.71
2023-01-28T18:26:38.354Z,3.62
2023-01-28T18:29:06.123Z,3.66
2023-01-28T18:32:01.402Z,3.67
2023-01-28T18:34:31.729Z,3.55
2023-01-28T18:37:00.197Z,3.61
2023-01-28T18:39:31.302Z,3.52
2023-01-28T18:42:00.263Z,3.52
2023-01-28T18:44:31.334Z,3.70
2023-01-28T18:46:59.394Z,3.60
2023-01-28T18:49:27.719Z,3.57
2023-01-28T18:51:57.161Z,3.52
2023-01-28T18:54:25.168Z,3.42
2023-01-28T18:56:53.033Z,3.65
2023-01-28T18:59:21.277Z,3.68
2023-01-28T19:01:49.869Z,3.77
2023-01-28T19:04:20.826Z,3.70
2023-01-28T19:06:49.168Z,3.53
2023-01-28T19:09:18.747Z,3.60
2023-01-28T19:11:48.351Z,3.59
2023-01-28T19:14:16.455Z,3.67
2023-01-28T19:16:45.313Z,3.62
2023-01-28T19:19:13.616Z,3.49
2023-01-28T19:21:41.477Z,3.15
2023-01-28T19:24:11.966Z,3.28
2023-01-28T19:26:42.700Z,3.30
2023-01-28T19:29:16.152Z,3.18
2023-01-28T19:31:48.388Z,3.37
2023-01-28T19:34:16.703Z,3.21
2023-01-28T19:36:44.744Z,3.35
2023-01-28T19:39:13.271Z,3.44
2023-01-28T19:41:43.058Z,3.65
2023-01-28T19:44:11.290Z,3.78
2023-01-28T19:46:41.241Z,3.75
2023-01-28T19:49:10.633Z,3.61
2023-01-28T19:51:38.473Z,3.52
2023-01-28T19:54:06.798Z,3.47
2023-01-28T19:56:36.059Z,3.46
2023-01-28T19:59:05.903Z,3.48
2023-01-28T20:01:35.919Z,3.10
2023-01-28T20:04:04.758Z,3.26
2023-01-28T20:06:33.277Z,3.30
2023-01-28T20:09:03.466Z,3.30
2023-01-28T20:11:31.449Z,3.13
2023-01-28T20:13:59.888Z,3.29
2023-01-28T20:16:31.466Z,3.15
2023-01-28T20:19:01.404Z,3.09
2023-01-28T20:21:30.826Z,2.88
2023-01-28T20:24:00.289Z,3.14
2023-01-28T20:26:31.192Z,3.20
2023-01-28T20:29:01.875Z,3.23
2023-01-28T20:31:32.858Z,3.15
2023-01-28T20:34:01.769Z,3.46
2023-01-28T20:36:29.776Z,3.35
2023-01-28T20:39:00.112Z,3.32
2023-01-28T20:41:28.634Z,3.43
2023-01-28T20:43:57.785Z,3.33
2023-01-28T20:46:28.811Z,3.51
2023-01-28T20:48:59.594Z,3.51
2023-01-28T20:51:31.064Z,3.62
2023-01-28T20:54:00.573Z,3.74
2023-01-28T20:56:30.024Z,3.83
2023-01-28T20:58:59.990Z,3.94
2023-01-28T21:01:29.958Z,3.78
2023-01-28T21:03:59.298Z,3.64
2023-01-28T21:06:28.122Z,3.55
2023-01-28T21:08:56.991Z,3.82
2023-01-28T21:11:27.051Z,3.68
2023-01-28T21:13:55.061Z,3.72
2023-01-28T21:16:25.182Z,3.83
2023-01-28T21:18:55.801Z,3.42
2023-01-28T21:21:26.465Z,3.11
2023-01-28T21:23:57.668Z,3.65
2023-01-28T21:26:25.831Z,3.31
2023-01-28T21:28:53.962Z,3.28
2023-01-28T21:31:23.869Z,3.39
2023-01-28T21:33:53.101Z,3.36
2023-01-28T21:36:21.640Z,3.37
2023-01-28T21:38:53.327Z,3.41
2023-01-28T21:41:21.177Z,3.02
2023-01-28T21:43:52.086Z,3.21
2023-01-28T21:46:20.054Z,3.53
2023-01-28T21:48:48.155Z,3.74
2023-01-28T21:51:33.580Z,4.06
2023-01-28T21:54:03.365Z,3.73
2023-01-28T21:56:31.456Z,4.37
2023-01-28T21:59:17.076Z,4.27
2023-01-28T22:01:45.129Z,4.28
2023-01-28T22:04:13.391Z,4.30
2023-01-28T22:06:42.134Z,4.81
2023-01-28T22:09:13.582Z,4.92
2023-01-28T22:11:42.723Z,4.90
2023-01-28T22:14:11.088Z,4.12
2023-01-28T22:16:42.365Z,4.57
2023-01-28T22:19:14.787Z,4.17
2023-01-28T22:21:44.847Z,4.23
2023-01-28T22:24:16.521Z,4.49
2023-01-28T22:26:45.605Z,5.04
2023-01-28T22:29:14.910Z,5.30
2023-01-28T22:31:43.475Z,5.07
2023-01-28T22:34:14.270Z,4.12
2023-01-28T22:36:42.528Z,5.07
2023-01-28T22:39:16.321Z,4.81
2023-01-28T22:41:46.720Z,4.73
2023-01-28T22:44:16.220Z,4.89
2023-01-28T22:46:44.354Z,4.70
2023-01-28T22:49:14.829Z,4.96
2023-01-28T22:51:42.675Z,4.66
2023-01-28T22:54:11.975Z,5.05
2023-01-28T22:56:41.575Z,5.36
2023-01-28T22:59:11.070Z,5.43
2023-01-28T23:01:40.051Z,5.69
2023-01-28T23:04:07.984Z,5.71
2023-01-28T23:06:37.270Z,5.86
2023-01-28T23:09:05.804Z,6.14
2023-01-28T23:11:33.698Z,6.05
2023-01-28T23:14:21.802Z,6.19
2023-01-28T23:17:08.097Z,6.24
2023-01-28T23:19:53.906Z,5.85
2023-01-28T23:22:42.099Z,5.82
2023-01-28T23:25:10.851Z,5.74
2023-01-28T23:27:39.105Z,5.86
2023-01-28T23:30:10.527Z,5.65
2023-01-28T23:32:40.555Z,5.85
2023-01-28T23:35:09.000Z,6.19
2023-01-28T23:37:36.913Z,6.11
2023-01-28T23:40:05.452Z,6.28
2023-01-28T23:42:33.383Z,6.13
2023-01-28T23:45:01.174Z,5.88
2023-01-28T23:47:30.776Z,5.89
2023-01-28T23:49:59.316Z,5.91
2023-01-28T23:52:27.384Z,5.91
2023-01-28T23:54:55.246Z,6.17
2023-01-28T23:57:23.263Z,6.13
2023-01-28T23:59:51.755Z,6.07
